sensor_id;sensor_type;location;lat;lon;timestamp;P1;durP1;ratioP1;P2;durP2;ratioP2
54993;SDS011;40891;47.242;8.648;2023-11-22T00:00:48;1.40;;;1.17;;
54993;SDS011;40891;47.242;8.648;2023-11-22T00:03:13;1.53;;;1.30;;
54993;SDS011;40891;47.242;8.648;2023-11-22T00:05:38;1.43;;;1.20;;
54993;SDS011;40891;47.242;8.648;2023-11-22T00:08:04;1.80;;;1.23;;
54993;SDS011;40891;47.242;8.648;2023-11-22T00:10:29;2.00;;;1.27;;
54993;SDS011;40891;47.242;8.648;2023-11-22T00:12:54;2.23;;;1.20;;
54993;SDS011;40891;47.242;8.648;2023-11-22T00:15:20;2.20;;;1.30;;
54993;SDS011;40891;47.242;8.648;2023-11-22T00:17:46;2.87;;;1.20;;
54993;SDS011;40891;47.242;8.648;2023-11-22T00:20:11;1.13;;;1.03;;
54993;SDS011;40891;47.242;8.648;2023-11-22T00:22:36;5.30;;;1.10;;
54993;SDS011;40891;47.242;8.648;2023-11-22T00:25:02;0.93;;;0.83;;
54993;SDS011;40891;47.242;8.648;2023-11-22T00:27:28;1.80;;;1.00;;
54993;SDS011;40891;47.242;8.648;2023-11-22T00:29:57;1.87;;;0.80;;
54993;SDS011;40891;47.242;8.648;2023-11-22T00:32:23;1.27;;;1.10;;
54993;SDS011;40891;47.242;8.648;2023-11-22T00:34:49;2.90;;;0.80;;
54993;SDS011;40891;47.242;8.648;2023-11-22T00:37:14;1.70;;;1.20;;
54993;SDS011;40891;47.242;8.648;2023-11-22T00:39:41;1.57;;;1.20;;
54993;SDS011;40891;47.242;8.648;2023-11-22T00:42:06;2.63;;;1.10;;
54993;SDS011;40891;47.242;8.648;2023-11-22T00:44:32;2.13;;;1.20;;
54993;SDS011;40891;47.242;8.648;2023-11-22T00:46:57;2.60;;;1.40;;
54993;SDS011;40891;47.242;8.648;2023-11-22T00:49:23;1.70;;;1.13;;
54993;SDS011;40891;47.242;8.648;2023-11-22T00:51:49;3.20;;;1.43;;
54993;SDS011;40891;47.242;8.648;2023-11-22T00:54:15;1.47;;;1.20;;
54993;SDS011;40891;47.242;8.648;2023-11-22T00:56:41;2.00;;;1.30;;
54993;SDS011;40891;47.242;8.648;2023-11-22T00:59:06;1.53;;;1.20;;
54993;SDS011;40891;47.242;8.648;2023-11-22T01:01:31;1.20;;;1.10;;
54993;SDS011;40891;47.242;8.648;2023-11-22T01:03:57;1.27;;;1.10;;
54993;SDS011;40891;47.242;8.648;2023-11-22T01:06:22;2.40;;;1.77;;
54993;SDS011;40891;47.242;8.648;2023-11-22T01:08:48;3.80;;;1.30;;
54993;SDS011;40891;47.242;8.648;2023-11-22T01:11:13;1.60;;;1.43;;
54993;SDS011;40891;47.242;8.648;2023-11-22T01:13:39;1.97;;;1.57;;
54993;SDS011;40891;47.242;8.648;2023-11-22T01:16:08;2.00;;;1.73;;
54993;SDS011;40891;47.242;8.648;2023-11-22T01:18:34;2.83;;;1.80;;
54993;SDS011;40891;47.242;8.648;2023-11-22T01:21:00;2.90;;;2.07;;
54993;SDS011;40891;47.242;8.648;2023-11-22T01:23:25;3.37;;;2.50;;
54993;SDS011;40891;47.242;8.648;2023-11-22T01:25:52;4.10;;;2.60;;
54993;SDS011;40891;47.242;8.648;2023-11-22T01:28:18;4.50;;;2.90;;
54993;SDS011;40891;47.242;8.648;2023-11-22T01:30:44;5.17;;;3.07;;
54993;SDS011;40891;47.242;8.648;2023-11-22T01:33:12;6.37;;;3.10;;
54993;SDS011;40891;47.242;8.648;2023-11-22T01:35:37;4.40;;;2.90;;
54993;SDS011;40891;47.242;8.648;2023-11-22T01:38:06;5.23;;;3.40;;
54993;SDS011;40891;47.242;8.648;2023-11-22T01:40:32;4.93;;;3.67;;
54993;SDS011;40891;47.242;8.648;2023-11-22T01:42:58;7.80;;;3.47;;
54993;SDS011;40891;47.242;8.648;2023-11-22T01:45:23;5.67;;;3.83;;
54993;SDS011;40891;47.242;8.648;2023-11-22T01:47:49;6.47;;;3.70;;
54993;SDS011;40891;47.242;8.648;2023-11-22T01:50:15;6.93;;;3.80;;
54993;SDS011;40891;47.242;8.648;2023-11-22T01:52:41;7.03;;;3.70;;
54993;SDS011;40891;47.242;8.648;2023-11-22T01:55:08;8.47;;;4.37;;
54993;SDS011;40891;47.242;8.648;2023-11-22T01:57:34;6.83;;;4.33;;
54993;SDS011;40891;47.242;8.648;2023-11-22T02:00:00;7.90;;;4.67;;
54993;SDS011;40891;47.242;8.648;2023-11-22T02:02:33;7.20;;;4.53;;
54993;SDS011;40891;47.242;8.648;2023-11-22T02:04:58;5.40;;;4.00;;
54993;SDS011;40891;47.242;8.648;2023-11-22T02:07:24;9.60;;;4.93;;
54993;SDS011;40891;47.242;8.648;2023-11-22T02:09:51;8.13;;;4.30;;
54993;SDS011;40891;47.242;8.648;2023-11-22T02:12:17;7.37;;;5.07;;
54993;SDS011;40891;47.242;8.648;2023-11-22T02:14:44;10.70;;;5.03;;
54993;SDS011;40891;47.242;8.648;2023-11-22T02:17:09;10.03;;;5.47;;
54993;SDS011;40891;47.242;8.648;2023-11-22T02:19:35;8.10;;;4.90;;
54993;SDS011;40891;47.242;8.648;2023-11-22T02:22:01;8.97;;;4.77;;
54993;SDS011;40891;47.242;8.648;2023-11-22T02:24:27;9.87;;;4.03;;
54993;SDS011;40891;47.242;8.648;2023-11-22T02:26:52;8.97;;;4.87;;
54993;SDS011;40891;47.242;8.648;2023-11-22T02:29:17;9.17;;;4.77;;
54993;SDS011;40891;47.242;8.648;2023-11-22T02:31:43;7.63;;;4.50;;
54993;SDS011;40891;47.242;8.648;2023-11-22T02:34:08;9.20;;;4.90;;
54993;SDS011;40891;47.242;8.648;2023-11-22T02:36:34;9.83;;;5.20;;
54993;SDS011;40891;47.242;8.648;2023-11-22T02:38:59;8.07;;;5.03;;
54993;SDS011;40891;47.242;8.648;2023-11-22T02:41:26;8.97;;;5.07;;
54993;SDS011;40891;47.242;8.648;2023-11-22T02:43:54;9.60;;;5.27;;
54993;SDS011;40891;47.242;8.648;2023-11-22T02:46:20;8.23;;;4.93;;
54993;SDS011;40891;47.242;8.648;2023-11-22T02:48:45;7.60;;;5.20;;
54993;SDS011;40891;47.242;8.648;2023-11-22T02:51:10;9.43;;;4.97;;
54993;SDS011;40891;47.242;8.648;2023-11-22T02:53:36;8.47;;;4.30;;
54993;SDS011;40891;47.242;8.648;2023-11-22T02:56:02;8.37;;;4.30;;
54993;SDS011;40891;47.242;8.648;2023-11-22T02:58:30;9.50;;;4.60;;
54993;SDS011;40891;47.242;8.648;2023-11-22T03:00:56;8.90;;;4.80;;
54993;SDS011;40891;47.242;8.648;2023-11-22T03:03:22;8.87;;;4.63;;
54993;SDS011;40891;47.242;8.648;2023-11-22T03:05:49;9.57;;;5.27;;
54993;SDS011;40891;47.242;8.648;2023-11-22T03:08:15;7.97;;;4.90;;
54993;SDS011;40891;47.242;8.648;2023-11-22T03:10:41;11.57;;;4.97;;
54993;SDS011;40891;47.242;8.648;2023-11-22T03:13:07;10.57;;;5.17;;
54993;SDS011;40891;47.242;8.648;2023-11-22T03:15:33;9.43;;;5.57;;
54993;SDS011;40891;47.242;8.648;2023-11-22T03:17:59;9.07;;;4.87;;
54993;SDS011;40891;47.242;8.648;2023-11-22T03:20:25;9.73;;;5.20;;
54993;SDS011;40891;47.242;8.648;2023-11-22T03:22:50;8.70;;;5.00;;
54993;SDS011;40891;47.242;8.648;2023-11-22T03:25:16;7.50;;;4.90;;
54993;SDS011;40891;47.242;8.648;2023-11-22T03:27:41;8.77;;;5.13;;
54993;SDS011;40891;47.242;8.648;2023-11-22T03:30:06;10.87;;;4.57;;
54993;SDS011;40891;47.242;8.648;2023-11-22T03:32:39;10.83;;;5.07;;
54993;SDS011;40891;47.242;8.648;2023-11-22T03:35:05;9.13;;;4.77;;
54993;SDS011;40891;47.242;8.648;2023-11-22T03:37:31;9.00;;;4.63;;
54993;SDS011;40891;47.242;8.648;2023-11-22T03:39:57;5.77;;;4.10;;
54993;SDS011;40891;47.242;8.648;2023-11-22T03:42:22;6.83;;;4.43;;
54993;SDS011;40891;47.242;8.648;2023-11-22T03:44:48;5.73;;;4.30;;
54993;SDS011;40891;47.242;8.648;2023-11-22T03:47:14;5.17;;;3.83;;
54993;SDS011;40891;47.242;8.648;2023-11-22T03:49:40;7.87;;;4.00;;
54993;SDS011;40891;47.242;8.648;2023-11-22T03:52:05;7.37;;;4.63;;
54993;SDS011;40891;47.242;8.648;2023-11-22T03:54:31;9.20;;;4.23;;
54993;SDS011;40891;47.242;8.648;2023-11-22T03:56:57;7.20;;;4.43;;
54993;SDS011;40891;47.242;8.648;2023-11-22T03:59:23;6.33;;;4.23;;
54993;SDS011;40891;47.242;8.648;2023-11-22T04:01:49;6.47;;;4.07;;
54993;SDS011;40891;47.242;8.648;2023-11-22T04:04:14;8.53;;;4.73;;
54993;SDS011;40891;47.242;8.648;2023-11-22T04:06:39;6.63;;;4.90;;
54993;SDS011;40891;47.242;8.648;2023-11-22T04:09:05;9.80;;;5.40;;
54993;SDS011;40891;47.242;8.648;2023-11-22T04:11:30;11.90;;;5.53;;
54993;SDS011;40891;47.242;8.648;2023-11-22T04:13:56;9.60;;;5.43;;
54993;SDS011;40891;47.242;8.648;2023-11-22T04:16:21;7.40;;;5.03;;
54993;SDS011;40891;47.242;8.648;2023-11-22T04:18:46;10.07;;;5.07;;
54993;SDS011;40891;47.242;8.648;2023-11-22T04:21:12;8.63;;;5.37;;
54993;SDS011;40891;47.242;8.648;2023-11-22T04:23:37;9.00;;;5.80;;
54993;SDS011;40891;47.242;8.648;2023-11-22T04:26:03;9.70;;;5.07;;
54993;SDS011;40891;47.242;8.648;2023-11-22T04:28:29;9.93;;;5.27;;
54993;SDS011;40891;47.242;8.648;2023-11-22T04:30:55;9.90;;;6.13;;
54993;SDS011;40891;47.242;8.648;2023-11-22T04:33:21;8.20;;;5.70;;
54993;SDS011;40891;47.242;8.648;2023-11-22T04:35:47;13.10;;;6.07;;
54993;SDS011;40891;47.242;8.648;2023-11-22T04:38:13;10.30;;;6.03;;
54993;SDS011;40891;47.242;8.648;2023-11-22T04:40:39;10.93;;;5.97;;
54993;SDS011;40891;47.242;8.648;2023-11-22T04:43:04;11.43;;;6.70;;
54993;SDS011;40891;47.242;8.648;2023-11-22T04:45:29;10.87;;;5.57;;
54993;SDS011;40891;47.242;8.648;2023-11-22T04:47:54;10.87;;;6.43;;
54993;SDS011;40891;47.242;8.648;2023-11-22T04:50:22;11.27;;;6.03;;
54993;SDS011;40891;47.242;8.648;2023-11-22T04:52:49;10.07;;;5.43;;
54993;SDS011;40891;47.242;8.648;2023-11-22T04:55:14;11.83;;;6.20;;
54993;SDS011;40891;47.242;8.648;2023-11-22T04:57:40;10.20;;;5.60;;
54993;SDS011;40891;47.242;8.648;2023-11-22T05:00:05;8.93;;;5.57;;
54993;SDS011;40891;47.242;8.648;2023-11-22T05:02:32;11.67;;;6.03;;
54993;SDS011;40891;47.242;8.648;2023-11-22T05:04:57;9.30;;;5.40;;
54993;SDS011;40891;47.242;8.648;2023-11-22T05:07:23;11.63;;;5.47;;
54993;SDS011;40891;47.242;8.648;2023-11-22T05:09:48;8.20;;;4.90;;
54993;SDS011;40891;47.242;8.648;2023-11-22T05:12:13;9.80;;;4.73;;
54993;SDS011;40891;47.242;8.648;2023-11-22T05:14:42;8.30;;;4.73;;
54993;SDS011;40891;47.242;8.648;2023-11-22T05:17:09;7.47;;;4.23;;
54993;SDS011;40891;47.242;8.648;2023-11-22T05:19:34;6.07;;;4.30;;
54993;SDS011;40891;47.242;8.648;2023-11-22T05:21:59;6.63;;;4.03;;
54993;SDS011;40891;47.242;8.648;2023-11-22T05:24:25;9.50;;;4.50;;
54993;SDS011;40891;47.242;8.648;2023-11-22T05:26:50;6.27;;;3.50;;
54993;SDS011;40891;47.242;8.648;2023-11-22T05:29:15;7.47;;;3.57;;
54993;SDS011;40891;47.242;8.648;2023-11-22T05:31:41;8.70;;;3.57;;
54993;SDS011;40891;47.242;8.648;2023-11-22T05:34:06;9.10;;;3.23;;
54993;SDS011;40891;47.242;8.648;2023-11-22T05:36:31;6.50;;;3.67;;
54993;SDS011;40891;47.242;8.648;2023-11-22T05:38:57;5.40;;;3.90;;
54993;SDS011;40891;47.242;8.648;2023-11-22T05:41:25;5.87;;;3.77;;
54993;SDS011;40891;47.242;8.648;2023-11-22T05:43:52;6.43;;;3.83;;
54993;SDS011;40891;47.242;8.648;2023-11-22T05:46:18;3.83;;;3.27;;
54993;SDS011;40891;47.242;8.648;2023-11-22T05:48:47;6.70;;;3.23;;
54993;SDS011;40891;47.242;8.648;2023-11-22T05:51:16;6.13;;;3.33;;
54993;SDS011;40891;47.242;8.648;2023-11-22T05:53:41;5.83;;;3.13;;
54993;SDS011;40891;47.242;8.648;2023-11-22T05:56:07;6.53;;;3.50;;
54993;SDS011;40891;47.242;8.648;2023-11-22T05:58:33;6.97;;;3.20;;
54993;SDS011;40891;47.242;8.648;2023-11-22T06:01:02;6.60;;;3.17;;
54993;SDS011;40891;47.242;8.648;2023-11-22T06:03:27;5.53;;;3.03;;
54993;SDS011;40891;47.242;8.648;2023-11-22T06:05:53;6.90;;;3.27;;
54993;SDS011;40891;47.242;8.648;2023-11-22T06:08:18;5.17;;;3.20;;
54993;SDS011;40891;47.242;8.648;2023-11-22T06:10:43;5.67;;;2.77;;
54993;SDS011;40891;47.242;8.648;2023-11-22T06:13:09;6.73;;;2.67;;
54993;SDS011;40891;47.242;8.648;2023-11-22T06:15:35;6.00;;;2.97;;
54993;SDS011;40891;47.242;8.648;2023-11-22T06:18:00;5.40;;;2.47;;
54993;SDS011;40891;47.242;8.648;2023-11-22T06:20:26;3.73;;;2.57;;
54993;SDS011;40891;47.242;8.648;2023-11-22T06:22:52;3.40;;;2.07;;
54993;SDS011;40891;47.242;8.648;2023-11-22T06:25:17;4.43;;;2.30;;
54993;SDS011;40891;47.242;8.648;2023-11-22T06:27:42;3.33;;;1.80;;
54993;SDS011;40891;47.242;8.648;2023-11-22T06:30:08;3.13;;;2.00;;
54993;SDS011;40891;47.242;8.648;2023-11-22T06:32:34;4.80;;;1.73;;
54993;SDS011;40891;47.242;8.648;2023-11-22T06:34:59;2.20;;;1.40;;
54993;SDS011;40891;47.242;8.648;2023-11-22T06:37:25;3.07;;;1.50;;
54993;SDS011;40891;47.242;8.648;2023-11-22T06:39:51;3.50;;;1.63;;
54993;SDS011;40891;47.242;8.648;2023-11-22T06:42:16;3.27;;;1.77;;
54993;SDS011;40891;47.242;8.648;2023-11-22T06:44:42;3.40;;;1.90;;
54993;SDS011;40891;47.242;8.648;2023-11-22T06:47:07;4.77;;;1.90;;
54993;SDS011;40891;47.242;8.648;2023-11-22T06:49:33;4.33;;;2.40;;
54993;SDS011;40891;47.242;8.648;2023-11-22T06:51:59;3.90;;;1.77;;
54993;SDS011;40891;47.242;8.648;2023-11-22T06:54:24;2.57;;;1.70;;
54993;SDS011;40891;47.242;8.648;2023-11-22T06:56:49;4.03;;;1.70;;
54993;SDS011;40891;47.242;8.648;2023-11-22T06:59:18;4.43;;;1.47;;
54993;SDS011;40891;47.242;8.648;2023-11-22T07:01:44;6.33;;;2.10;;
54993;SDS011;40891;47.242;8.648;2023-11-22T07:04:10;3.17;;;2.13;;
54993;SDS011;40891;47.242;8.648;2023-11-22T07:06:35;3.17;;;2.00;;
54993;SDS011;40891;47.242;8.648;2023-11-22T07:09:03;2.03;;;1.60;;
54993;SDS011;40891;47.242;8.648;2023-11-22T07:11:28;3.47;;;1.63;;
54993;SDS011;40891;47.242;8.648;2023-11-22T07:13:55;2.37;;;1.37;;
54993;SDS011;40891;47.242;8.648;2023-11-22T07:16:22;2.63;;;1.60;;
54993;SDS011;40891;47.242;8.648;2023-11-22T07:18:48;3.93;;;1.63;;
54993;SDS011;40891;47.242;8.648;2023-11-22T07:21:13;5.77;;;1.63;;
54993;SDS011;40891;47.242;8.648;2023-11-22T07:23:38;2.73;;;1.40;;
54993;SDS011;40891;47.242;8.648;2023-11-22T07:26:03;3.27;;;1.70;;
54993;SDS011;40891;47.242;8.648;2023-11-22T07:28:31;2.30;;;1.40;;
54993;SDS011;40891;47.242;8.648;2023-11-22T07:30:56;1.97;;;1.40;;
54993;SDS011;40891;47.242;8.648;2023-11-22T07:33:21;2.73;;;1.57;;
54993;SDS011;40891;47.242;8.648;2023-11-22T07:35:47;2.33;;;1.27;;
54993;SDS011;40891;47.242;8.648;2023-11-22T07:38:12;4.07;;;1.40;;
54993;SDS011;40891;47.242;8.648;2023-11-22T07:40:37;3.70;;;1.37;;
54993;SDS011;40891;47.242;8.648;2023-11-22T07:43:02;2.47;;;1.37;;
54993;SDS011;40891;47.242;8.648;2023-11-22T07:45:30;2.43;;;1.43;;
54993;SDS011;40891;47.242;8.648;2023-11-22T07:47:56;2.60;;;1.40;;
54993;SDS011;40891;47.242;8.648;2023-11-22T07:50:24;1.97;;;1.10;;
54993;SDS011;40891;47.242;8.648;2023-11-22T07:52:49;1.70;;;1.10;;
54993;SDS011;40891;47.242;8.648;2023-11-22T07:55:15;2.17;;;1.30;;
54993;SDS011;40891;47.242;8.648;2023-11-22T07:57:43;2.60;;;1.07;;
54993;SDS011;40891;47.242;8.648;2023-11-22T08:00:09;1.80;;;1.30;;
54993;SDS011;40891;47.242;8.648;2023-11-22T08:02:36;1.50;;;1.20;;
54993;SDS011;40891;47.242;8.648;2023-11-22T08:05:03;1.53;;;1.13;;
54993;SDS011;40891;47.242;8.648;2023-11-22T08:07:33;1.50;;;1.00;;
54993;SDS011;40891;47.242;8.648;2023-11-22T08:10:07;1.10;;;0.97;;
54993;SDS011;40891;47.242;8.648;2023-11-22T08:12:43;1.00;;;0.90;;
54993;SDS011;40891;47.242;8.648;2023-11-22T08:15:13;1.00;;;0.60;;
54993;SDS011;40891;47.242;8.648;2023-11-22T08:17:39;0.60;;;0.60;;
54993;SDS011;40891;47.242;8.648;2023-11-22T08:20:11;1.17;;;0.80;;
54993;SDS011;40891;47.242;8.648;2023-11-22T08:22:38;1.33;;;0.80;;
54993;SDS011;40891;47.242;8.648;2023-11-22T08:25:05;0.70;;;0.60;;
54993;SDS011;40891;47.242;8.648;2023-11-22T08:27:33;0.47;;;0.40;;
54993;SDS011;40891;47.242;8.648;2023-11-22T08:29:58;1.17;;;0.50;;
54993;SDS011;40891;47.242;8.648;2023-11-22T08:32:26;1.27;;;0.77;;
54993;SDS011;40891;47.242;8.648;2023-11-22T08:34:55;1.13;;;0.73;;
54993;SDS011;40891;47.242;8.648;2023-11-22T08:37:21;0.90;;;0.60;;
54993;SDS011;40891;47.242;8.648;2023-11-22T08:39:46;0.90;;;0.77;;
54993;SDS011;40891;47.242;8.648;2023-11-22T08:42:12;0.80;;;0.60;;
54993;SDS011;40891;47.242;8.648;2023-11-22T08:44:38;1.10;;;0.60;;
54993;SDS011;40891;47.242;8.648;2023-11-22T08:47:03;1.13;;;0.77;;
54993;SDS011;40891;47.242;8.648;2023-11-22T08:49:29;0.83;;;0.80;;
54993;SDS011;40891;47.242;8.648;2023-11-22T08:51:55;0.97;;;0.87;;
54993;SDS011;40891;47.242;8.648;2023-11-22T08:54:21;1.00;;;0.83;;
54993;SDS011;40891;47.242;8.648;2023-11-22T08:56:47;1.53;;;0.73;;
54993;SDS011;40891;47.242;8.648;2023-11-22T08:59:12;1.03;;;0.80;;
54993;SDS011;40891;47.242;8.648;2023-11-22T09:01:38;1.03;;;0.70;;
54993;SDS011;40891;47.242;8.648;2023-11-22T09:04:03;1.60;;;0.80;;
54993;SDS011;40891;47.242;8.648;2023-11-22T09:06:29;1.27;;;0.90;;
54993;SDS011;40891;47.242;8.648;2023-11-22T09:08:56;1.33;;;1.10;;
54993;SDS011;40891;47.242;8.648;2023-11-22T09:11:21;2.87;;;1.20;;
54993;SDS011;40891;47.242;8.648;2023-11-22T09:13:48;1.60;;;1.30;;
54993;SDS011;40891;47.242;8.648;2023-11-22T09:16:15;1.77;;;1.30;;
54993;SDS011;40891;47.242;8.648;2023-11-22T09:18:41;2.07;;;1.57;;
54993;SDS011;40891;47.242;8.648;2023-11-22T09:21:07;2.30;;;1.73;;
54993;SDS011;40891;47.242;8.648;2023-11-22T09:23:34;3.90;;;1.70;;
54993;SDS011;40891;47.242;8.648;2023-11-22T09:26:01;4.57;;;1.83;;
54993;SDS011;40891;47.242;8.648;2023-11-22T09:28:26;2.07;;;1.60;;
54993;SDS011;40891;47.242;8.648;2023-11-22T09:30:52;3.43;;;1.67;;
54993;SDS011;40891;47.242;8.648;2023-11-22T09:33:17;2.10;;;1.70;;
54993;SDS011;40891;47.242;8.648;2023-11-22T09:35:44;3.00;;;1.93;;
54993;SDS011;40891;47.242;8.648;2023-11-22T09:38:12;4.87;;;1.87;;
54993;SDS011;40891;47.242;8.648;2023-11-22T09:40:40;2.13;;;1.77;;
54993;SDS011;40891;47.242;8.648;2023-11-22T09:43:06;3.70;;;1.80;;
54993;SDS011;40891;47.242;8.648;2023-11-22T09:45:32;3.10;;;2.20;;
54993;SDS011;40891;47.242;8.648;2023-11-22T09:47:58;2.53;;;1.60;;
54993;SDS011;40891;47.242;8.648;2023-11-22T09:53:10;2.40;;;1.60;;
54993;SDS011;40891;47.242;8.648;2023-11-22T09:55:39;2.20;;;1.70;;
54993;SDS011;40891;47.242;8.648;2023-11-22T09:58:08;4.27;;;1.70;;
54993;SDS011;40891;47.242;8.648;2023-11-22T10:00:36;4.00;;;1.83;;
54993;SDS011;40891;47.242;8.648;2023-11-22T10:03:03;2.37;;;1.40;;
54993;SDS011;40891;47.242;8.648;2023-11-22T10:05:29;2.70;;;1.70;;
54993;SDS011;40891;47.242;8.648;2023-11-22T10:07:54;2.17;;;1.30;;
54993;SDS011;40891;47.242;8.648;2023-11-22T10:10:20;2.70;;;1.70;;
54993;SDS011;40891;47.242;8.648;2023-11-22T10:12:47;2.10;;;1.20;;
54993;SDS011;40891;47.242;8.648;2023-11-22T10:15:13;2.80;;;2.00;;
54993;SDS011;40891;47.242;8.648;2023-11-22T10:17:40;2.20;;;1.50;;
54993;SDS011;40891;47.242;8.648;2023-11-22T10:20:12;1.80;;;1.47;;
54993;SDS011;40891;47.242;8.648;2023-11-22T10:22:44;4.30;;;1.57;;
54993;SDS011;40891;47.242;8.648;2023-11-22T10:25:10;2.27;;;1.60;;
54993;SDS011;40891;47.242;8.648;2023-11-22T10:27:37;1.83;;;1.40;;
54993;SDS011;40891;47.242;8.648;2023-11-22T10:30:04;2.70;;;1.67;;
54993;SDS011;40891;47.242;8.648;2023-11-22T10:32:30;2.10;;;1.20;;
54993;SDS011;40891;47.242;8.648;2023-11-22T10:34:55;2.47;;;1.70;;
54993;SDS011;40891;47.242;8.648;2023-11-22T10:37:20;2.80;;;1.30;;
54993;SDS011;40891;47.242;8.648;2023-11-22T10:39:50;1.67;;;1.20;;
54993;SDS011;40891;47.242;8.648;2023-11-22T10:42:16;3.40;;;1.30;;
54993;SDS011;40891;47.242;8.648;2023-11-22T10:44:42;2.00;;;1.20;;
54993;SDS011;40891;47.242;8.648;2023-11-22T10:47:08;2.27;;;1.50;;
54993;SDS011;40891;47.242;8.648;2023-11-22T10:49:34;3.23;;;1.20;;
54993;SDS011;40891;47.242;8.648;2023-11-22T10:52:00;1.33;;;0.93;;
54993;SDS011;40891;47.242;8.648;2023-11-22T10:54:26;3.10;;;1.10;;
54993;SDS011;40891;47.242;8.648;2023-11-22T10:56:54;1.63;;;1.00;;
54993;SDS011;40891;47.242;8.648;2023-11-22T10:59:22;1.03;;;0.83;;
54993;SDS011;40891;47.242;8.648;2023-11-22T11:01:52;1.30;;;1.03;;
54993;SDS011;40891;47.242;8.648;2023-11-22T11:04:24;1.00;;;0.87;;
54993;SDS011;40891;47.242;8.648;2023-11-22T11:06:54;1.20;;;1.00;;
54993;SDS011;40891;47.242;8.648;2023-11-22T11:09:23;1.27;;;1.00;;
54993;SDS011;40891;47.242;8.648;2023-11-22T11:11:54;1.47;;;0.93;;
54993;SDS011;40891;47.242;8.648;2023-11-22T11:14:22;1.70;;;0.90;;
54993;SDS011;40891;47.242;8.648;2023-11-22T11:16:48;1.27;;;0.93;;
54993;SDS011;40891;47.242;8.648;2023-11-22T11:19:19;1.87;;;1.20;;
54993;SDS011;40891;47.242;8.648;2023-11-22T11:21:47;1.30;;;1.00;;
54993;SDS011;40891;47.242;8.648;2023-11-22T11:24:13;1.50;;;1.17;;
54993;SDS011;40891;47.242;8.648;2023-11-22T11:26:39;1.50;;;1.00;;
54993;SDS011;40891;47.242;8.648;2023-11-22T11:29:04;1.13;;;0.80;;
54993;SDS011;40891;47.242;8.648;2023-11-22T11:31:31;1.73;;;1.13;;
54993;SDS011;40891;47.242;8.648;2023-11-22T11:34:00;1.27;;;1.10;;
54993;SDS011;40891;47.242;8.648;2023-11-22T11:36:26;1.10;;;1.00;;
54993;SDS011;40891;47.242;8.648;2023-11-22T11:38:54;1.10;;;0.80;;
54993;SDS011;40891;47.242;8.648;2023-11-22T11:41:30;1.23;;;1.03;;
54993;SDS011;40891;47.242;8.648;2023-11-22T11:44:02;1.40;;;1.10;;
54993;SDS011;40891;47.242;8.648;2023-11-22T11:46:28;1.23;;;0.93;;
54993;SDS011;40891;47.242;8.648;2023-11-22T11:48:54;1.93;;;1.00;;
54993;SDS011;40891;47.242;8.648;2023-11-22T11:51:27;1.37;;;0.90;;
54993;SDS011;40891;47.242;8.648;2023-11-22T11:53:53;1.10;;;1.00;;
54993;SDS011;40891;47.242;8.648;2023-11-22T11:56:19;0.83;;;0.67;;
54993;SDS011;40891;47.242;8.648;2023-11-22T11:58:46;1.00;;;0.77;;
54993;SDS011;40891;47.242;8.648;2023-11-22T12:01:17;2.23;;;1.07;;
54993;SDS011;40891;47.242;8.648;2023-11-22T12:03:46;0.90;;;0.77;;
54993;SDS011;40891;47.242;8.648;2023-11-22T12:06:15;1.43;;;1.10;;
54993;SDS011;40891;47.242;8.648;2023-11-22T12:08:42;1.60;;;1.10;;
54993;SDS011;40891;47.242;8.648;2023-11-22T12:11:08;2.17;;;1.20;;
54993;SDS011;40891;47.242;8.648;2023-11-22T12:13:34;2.50;;;1.27;;
54993;SDS011;40891;47.242;8.648;2023-11-22T12:16:00;2.33;;;1.13;;
54993;SDS011;40891;47.242;8.648;2023-11-22T12:18:38;1.67;;;1.27;;
54993;SDS011;40891;47.242;8.648;2023-11-22T12:21:10;2.07;;;1.40;;
54993;SDS011;40891;47.242;8.648;2023-11-22T12:23:38;2.77;;;1.43;;
54993;SDS011;40891;47.242;8.648;2023-11-22T12:26:03;2.13;;;1.53;;
54993;SDS011;40891;47.242;8.648;2023-11-22T12:28:30;2.80;;;1.63;;
54993;SDS011;40891;47.242;8.648;2023-11-22T12:31:06;2.27;;;1.67;;
54993;SDS011;40891;47.242;8.648;2023-11-22T12:33:32;6.80;;;1.87;;
54993;SDS011;40891;47.242;8.648;2023-11-22T12:35:57;3.57;;;1.50;;
54993;SDS011;40891;47.242;8.648;2023-11-22T12:38:23;4.03;;;1.53;;
54993;SDS011;40891;47.242;8.648;2023-11-22T12:40:48;3.33;;;1.40;;
54993;SDS011;40891;47.242;8.648;2023-11-22T12:43:14;1.87;;;1.57;;
54993;SDS011;40891;47.242;8.648;2023-11-22T12:45:40;2.77;;;1.87;;
54993;SDS011;40891;47.242;8.648;2023-11-22T12:48:24;1.60;;;1.37;;
54993;SDS011;40891;47.242;8.648;2023-11-22T12:50:53;2.17;;;1.60;;
54993;SDS011;40891;47.242;8.648;2023-11-22T12:53:19;2.73;;;2.00;;
54993;SDS011;40891;47.242;8.648;2023-11-22T12:55:47;3.30;;;1.63;;
54993;SDS011;40891;47.242;8.648;2023-11-22T12:58:14;2.47;;;1.80;;
54993;SDS011;40891;47.242;8.648;2023-11-22T13:00:40;1.87;;;1.50;;
54993;SDS011;40891;47.242;8.648;2023-11-22T13:03:08;3.23;;;2.07;;
54993;SDS011;40891;47.242;8.648;2023-11-22T13:05:39;1.80;;;1.33;;
54993;SDS011;40891;47.242;8.648;2023-11-22T13:08:05;3.17;;;1.70;;
54993;SDS011;40891;47.242;8.648;2023-11-22T13:10:30;2.60;;;1.80;;
54993;SDS011;40891;47.242;8.648;2023-11-22T13:12:56;2.60;;;1.73;;
54993;SDS011;40891;47.242;8.648;2023-11-22T13:15:22;9.50;;;2.33;;
54993;SDS011;40891;47.242;8.648;2023-11-22T13:17:55;3.27;;;1.93;;
54993;SDS011;40891;47.242;8.648;2023-11-22T13:20:24;2.37;;;2.00;;
54993;SDS011;40891;47.242;8.648;2023-11-22T13:22:56;2.73;;;1.73;;
54993;SDS011;40891;47.242;8.648;2023-11-22T13:25:21;3.23;;;1.97;;
54993;SDS011;40891;47.242;8.648;2023-11-22T13:27:48;2.97;;;1.90;;
54993;SDS011;40891;47.242;8.648;2023-11-22T13:30:18;2.43;;;1.67;;
54993;SDS011;40891;47.242;8.648;2023-11-22T13:32:45;4.10;;;1.90;;
54993;SDS011;40891;47.242;8.648;2023-11-22T13:35:10;2.70;;;1.87;;
54993;SDS011;40891;47.242;8.648;2023-11-22T13:37:40;3.13;;;1.90;;
54993;SDS011;40891;47.242;8.648;2023-11-22T13:40:07;4.70;;;2.13;;
54993;SDS011;40891;47.242;8.648;2023-11-22T13:42:47;2.50;;;1.60;;
54993;SDS011;40891;47.242;8.648;2023-11-22T13:45:14;4.43;;;2.30;;
54993;SDS011;40891;47.242;8.648;2023-11-22T13:47:50;3.23;;;1.97;;
54993;SDS011;40891;47.242;8.648;2023-11-22T13:50:19;4.77;;;2.20;;
54993;SDS011;40891;47.242;8.648;2023-11-22T13:52:47;2.90;;;1.97;;
54993;SDS011;40891;47.242;8.648;2023-11-22T13:55:15;4.30;;;2.20;;
54993;SDS011;40891;47.242;8.648;2023-11-22T13:57:44;4.03;;;2.03;;
54993;SDS011;40891;47.242;8.648;2023-11-22T14:00:10;2.40;;;2.00;;
54993;SDS011;40891;47.242;8.648;2023-11-22T14:02:38;2.77;;;2.03;;
54993;SDS011;40891;47.242;8.648;2023-11-22T14:05:05;2.83;;;1.87;;
54993;SDS011;40891;47.242;8.648;2023-11-22T14:07:32;4.67;;;1.93;;
54993;SDS011;40891;47.242;8.648;2023-11-22T14:09:59;2.83;;;2.03;;
54993;SDS011;40891;47.242;8.648;2023-11-22T14:12:24;2.57;;;1.77;;
54993;SDS011;40891;47.242;8.648;2023-11-22T14:14:50;2.53;;;2.13;;
54993;SDS011;40891;47.242;8.648;2023-11-22T14:17:16;2.67;;;1.97;;
54993;SDS011;40891;47.242;8.648;2023-11-22T14:19:45;5.60;;;2.00;;
54993;SDS011;40891;47.242;8.648;2023-11-22T14:22:11;3.33;;;2.13;;
54993;SDS011;40891;47.242;8.648;2023-11-22T14:24:38;4.67;;;2.60;;
54993;SDS011;40891;47.242;8.648;2023-11-22T14:27:04;4.73;;;2.30;;
54993;SDS011;40891;47.242;8.648;2023-11-22T14:29:29;3.30;;;2.20;;
54993;SDS011;40891;47.242;8.648;2023-11-22T14:31:55;3.00;;;2.47;;
54993;SDS011;40891;47.242;8.648;2023-11-22T14:34:20;4.03;;;2.50;;
54993;SDS011;40891;47.242;8.648;2023-11-22T14:36:46;4.30;;;3.03;;
54993;SDS011;40891;47.242;8.648;2023-11-22T14:39:11;5.70;;;2.90;;
54993;SDS011;40891;47.242;8.648;2023-11-22T14:41:39;5.13;;;2.83;;
54993;SDS011;40891;47.242;8.648;2023-11-22T14:44:05;4.50;;;2.60;;
54993;SDS011;40891;47.242;8.648;2023-11-22T14:46:30;4.87;;;2.57;;